Time;durP1;ratioP1;P1;durP2;ratioP2;P2;SDS_P1;SDS_P2;PMS_P1;PMS_P2;Temp;Humidity;BMP_temperature;BMP_pressure;BME280_temperature;BME280_humidity;BME280_pressure;Samples;Min_cycle;Max_cycle;Signal;HPM_P1;HPM_P2
2022/08/09 00:00:10;;;;;;;0.47;0.10;;;14.90;99.90;;;;;;5093761;28;20411;-81
2022/08/09 00:02:36;;;;;;;0.00;0.00;;;14.90;99.90;;;;;;5077507;28;20146;-80
2022/08/09 00:05:03;;;;;;;0.00;0.00;;;14.80;99.90;;;;;;5094843;28;20039;-81
2022/08/09 00:07:28;;;;;;;0.00;0.00;;;14.80;99.90;;;;;;5093358;28;20112;-81
2022/08/09 00:09:54;;;;;;;0.00;0.00;;;14.70;99.90;;;;;;5077957;28;20040;-81
2022/08/09 00:12:20;;;;;;;0.00;0.00;;;14.70;99.90;;;;;;5094464;28;20036;-81
2022/08/09 00:14:46;;;;;;;0.00;0.00;;;14.70;99.90;;;;;;5094546;28;20539;-81
2022/08/09 00:17:11;;;;;;;0.00;0.00;;;14.70;99.90;;;;;;5094127;28;20388;-81
2022/08/09 00:19:37;;;;;;;0.00;0.00;;;14.60;99.90;;;;;;5077422;28;20396;-81
2022/08/09 00:22:03;;;;;;;0.00;0.00;;;14.60;99.90;;;;;;5076851;28;20055;-81
2022/08/09 00:24:30;;;;;;;0.10;0.00;;;14.60;99.90;;;;;;5094171;28;20051;-81
2022/08/09 00:26:56;;;;;;;0.00;0.00;;;14.60;99.90;;;;;;5077083;28;20048;-81
2022/08/09 00:29:22;;;;;;;0.00;0.00;;;14.50;99.90;;;;;;5077614;28;20090;-81
2022/08/09 00:31:48;;;;;;;0.00;0.00;;;14.60;99.90;;;;;;5077674;28;20472;-81
2022/08/09 00:34:14;;;;;;;0.25;0.00;;;14.50;99.90;;;;;;5075968;28;20066;-81
2022/08/09 00:36:40;;;;;;;0.00;0.00;;;14.50;99.90;;;;;;5094094;28;20134;-81
2022/08/09 00:39:07;;;;;;;0.00;0.00;;;14.40;99.90;;;;;;5094943;28;20395;-81
2022/08/09 00:41:32;;;;;;;0.00;0.00;;;14.40;99.90;;;;;;5094367;28;20055;-82
2022/08/09 00:43:58;;;;;;;0.50;0.15;;;14.50;99.90;;;;;;5094966;28;20540;-81
2022/08/09 00:46:24;;;;;;;0.00;0.00;;;14.40;99.90;;;;;;5077009;28;20059;-81
2022/08/09 00:48:49;;;;;;;0.00;0.00;;;14.40;99.90;;;;;;5093925;28;20092;-81
2022/08/09 00:51:16;;;;;;;0.00;0.00;;;14.40;99.90;;;;;;5094221;28;20039;-81
2022/08/09 00:53:44;;;;;;;0.00;0.00;;;14.40;99.90;;;;;;5093959;28;20052;-81
2022/08/09 00:56:10;;;;;;;0.00;0.00;;;14.30;99.90;;;;;;5077273;28;20097;-81
2022/08/09 00:58:36;;;;;;;0.00;0.00;;;14.30;99.90;;;;;;5093617;28;20098;-81
2022/08/09 01:01:19;;;;;;;0.00;0.00;;;14.20;99.90;;;;;;5093714;28;20055;-81
2022/08/09 01:03:45;;;;;;;0.00;0.00;;;14.20;99.90;;;;;;5093718;28;20036;-81
2022/08/09 01:06:13;;;;;;;0.00;0.00;;;14.20;99.90;;;;;;5076958;28;20548;-81
2022/08/09 01:08:54;;;;;;;0.00;0.00;;;14.20;99.90;;;;;;5094042;28;20506;-81
2022/08/09 01:11:38;;;;;;;0.00;0.00;;;14.20;99.90;;;;;;5093361;28;20098;-81
2022/08/09 01:14:14;;;;;;;0.00;0.00;;;14.20;99.90;;;;;;5094214;28;20044;-81
2022/08/09 01:16:43;;;;;;;0.00;0.00;;;14.10;99.90;;;;;;5093599;28;20097;-81
2022/08/09 01:19:34;;;;;;;0.00;0.00;;;14.10;99.90;;;;;;5078936;28;20387;-81
2022/08/09 01:22:03;;;;;;;0.00;0.00;;;14.10;99.90;;;;;;5003522;28;20437;-81
2022/08/09 01:24:51;;;;;;;0.00;0.00;;;14.10;99.90;;;;;;5003870;28;20061;-81
2022/08/09 01:27:18;;;;;;;0.00;0.00;;;14.10;99.90;;;;;;5020120;28;20516;-81
2022/08/09 01:29:54;;;;;;;0.00;0.00;;;14.10;99.90;;;;;;5003324;28;20146;-81
2022/08/09 01:32:21;;;;;;;0.00;0.00;;;14.10;99.90;;;;;;5036130;28;20045;-81
2022/08/09 01:34:50;;;;;;;0.00;0.00;;;14.00;99.90;;;;;;5036512;28;20104;-81
2022/08/09 01:37:19;;;;;;;0.00;0.00;;;14.00;99.90;;;;;;5003231;28;20196;-81
2022/08/09 01:39:48;;;;;;;0.05;0.00;;;14.00;99.90;;;;;;5003189;28;20111;-81
2022/08/09 01:42:15;;;;;;;0.00;0.00;;;14.00;99.90;;;;;;5003397;28;20041;-80
2022/08/09 01:44:42;;;;;;;0.10;0.10;;;14.00;99.90;;;;;;5003078;28;20061;-81
2022/08/09 01:47:09;;;;;;;0.00;0.00;;;13.90;99.90;;;;;;5002870;28;20060;-81
2022/08/09 01:49:36;;;;;;;0.00;0.00;;;14.00;99.90;;;;;;5035383;28;20524;-81
2022/08/09 01:52:11;;;;;;;0.00;0.00;;;13.90;99.90;;;;;;5002528;28;20042;-81
2022/08/09 01:54:40;;;;;;;0.15;0.00;;;13.90;99.90;;;;;;5003408;28;20128;-81
2022/08/09 01:57:14;;;;;;;0.00;0.00;;;13.90;99.90;;;;;;5003563;28;20049;-81
2022/08/09 01:59:43;;;;;;;0.00;0.00;;;13.80;99.90;;;;;;5064338;28;20419;-81
2022/08/09 02:02:10;;;;;;;0.00;0.00;;;13.80;99.90;;;;;;5096942;28;20518;-81
2022/08/09 02:04:38;;;;;;;0.10;0.10;;;13.80;99.90;;;;;;5097123;28;20055;-81
2022/08/09 02:07:08;;;;;;;0.00;0.00;;;13.70;99.90;;;;;;5080022;28;20089;-81
2022/08/09 02:10:02;;;;;;;0.00;0.00;;;13.70;99.90;;;;;;5079854;28;20047;-81
2022/08/09 02:12:30;;;;;;;0.00;0.00;;;13.70;99.90;;;;;;5094208;28;20052;-81
2022/08/09 02:14:59;;;;;;;0.00;0.00;;;13.70;99.90;;;;;;5096581;28;20112;-81
2022/08/09 02:17:28;;;;;;;0.00;0.00;;;13.70;99.90;;;;;;5096718;28;20177;-81
2022/08/09 02:19:54;;;;;;;0.00;0.00;;;13.70;99.90;;;;;;5096535;28;20052;-81
2022/08/09 02:22:53;;;;;;;0.00;0.00;;;13.60;99.90;;;;;;5096429;28;20480;-80
2022/08/09 02:25:31;;;;;;;0.00;0.00;;;13.60;99.90;;;;;;5018903;28;20058;-80
2022/08/09 02:28:33;;;;;;;0.00;0.00;;;13.60;99.90;;;;;;5002645;28;20088;-80
2022/08/09 02:31:04;;;;;;;0.00;0.00;;;13.60;99.90;;;;;;5000921;28;20060;-80
2022/08/09 02:33:35;;;;;;;0.00;0.00;;;13.60;99.90;;;;;;5002002;28;20061;-79
2022/08/09 02:36:03;;;;;;;0.45;0.35;;;13.60;99.90;;;;;;5035577;28;20053;-79
2022/08/09 02:38:33;;;;;;;0.00;0.00;;;13.50;99.90;;;;;;5018788;28;20053;-80
2022/08/09 02:41:07;;;;;;;0.00;0.00;;;13.50;99.90;;;;;;5035102;28;20049;-80
2022/08/09 02:43:34;;;;;;;0.00;0.00;;;13.50;99.90;;;;;;5035709;28;20449;-79
2022/08/09 02:46:02;;;;;;;0.00;0.00;;;13.50;99.90;;;;;;5001619;28;20049;-79
2022/08/09 02:48:30;;;;;;;0.00;0.00;;;13.50;99.90;;;;;;5018493;28;20067;-79
2022/08/09 02:50:59;;;;;;;0.00;0.00;;;13.50;99.90;;;;;;5018413;28;20045;-79
2022/08/09 02:53:34;;;;;;;0.00;0.00;;;13.50;99.90;;;;;;5035130;28;20056;-79
2022/08/09 02:56:02;;;;;;;0.10;0.00;;;13.40;99.90;;;;;;5002310;28;20148;-79
2022/08/09 02:58:30;;;;;;;0.05;0.05;;;13.40;99.90;;;;;;5002143;28;20507;-79
2022/08/09 03:00:58;;;;;;;0.00;0.00;;;13.40;99.90;;;;;;5030670;28;20055;-79
2022/08/09 03:03:26;;;;;;;0.00;0.00;;;13.30;99.90;;;;;;5096008;28;20054;-80
2022/08/09 03:05:55;;;;;;;0.00;0.00;;;13.30;99.90;;;;;;5095630;28;20044;-80
2022/08/09 03:08:23;;;;;;;0.00;0.00;;;13.30;99.90;;;;;;5078041;28;20051;-80
2022/08/09 03:10:49;;;;;;;0.00;0.00;;;13.30;99.90;;;;;;5095442;28;20048;-79
2022/08/09 03:13:19;;;;;;;0.00;0.00;;;13.30;99.90;;;;;;5078778;28;20472;-79
2022/08/09 03:15:45;;;;;;;0.00;0.00;;;13.30;99.90;;;;;;5095851;28;20047;-80
2022/08/09 03:18:12;;;;;;;0.00;0.00;;;13.20;99.90;;;;;;5095494;28;20094;-79
2022/08/09 03:20:39;;;;;;;0.00;0.00;;;13.20;99.90;;;;;;5095331;28;20055;-80
2022/08/09 03:23:06;;;;;;;0.00;0.00;;;13.20;99.90;;;;;;5095369;28;20044;-80
2022/08/09 03:25:33;;;;;;;0.00;0.00;;;13.10;99.90;;;;;;5095074;28;20047;-80
2022/08/09 03:28:00;;;;;;;0.08;0.08;;;13.10;99.90;;;;;;5078437;28;20168;-79
2022/08/09 03:30:27;;;;;;;0.00;0.00;;;13.10;99.90;;;;;;5095199;28;20128;-80
2022/08/09 03:32:54;;;;;;;0.00;0.00;;;13.10;99.90;;;;;;5077836;28;20408;-80
2022/08/09 03:35:20;;;;;;;0.00;0.00;;;13.10;99.90;;;;;;5095402;28;20097;-80
2022/08/09 03:37:46;;;;;;;0.00;0.00;;;13.10;99.90;;;;;;5095106;28;20052;-80
2022/08/09 03:40:12;;;;;;;0.00;0.00;;;13.10;99.90;;;;;;5095232;28;20069;-80
2022/08/09 03:42:38;;;;;;;0.00;0.00;;;13.10;99.90;;;;;;5077045;28;20051;-80
2022/08/09 03:45:04;;;;;;;0.00;0.00;;;13.00;99.90;;;;;;5093006;28;20051;-80
2022/08/09 03:47:30;;;;;;;0.00;0.00;;;13.10;99.90;;;;;;5094046;28;20040;-80
2022/08/09 03:49:57;;;;;;;0.00;0.00;;;13.00;99.90;;;;;;5094079;28;20130;-80
2022/08/09 03:52:25;;;;;;;0.00;0.00;;;13.10;99.90;;;;;;5077565;28;20087;-80
2022/08/09 03:54:53;;;;;;;0.00;0.00;;;13.00;99.90;;;;;;5077877;28;20089;-80
2022/08/09 03:57:19;;;;;;;0.00;0.00;;;13.00;99.90;;;;;;5094860;28;20492;-81
2022/08/09 03:59:45;;;;;;;0.30;0.20;;;13.00;99.90;;;;;;5094618;28;20040;-80
2022/08/09 04:02:10;;;;;;;0.00;0.00;;;13.00;99.90;;;;;;5094491;28;20051;-80
2022/08/09 04:04:36;;;;;;;0.00;0.00;;;13.00;99.90;;;;;;5094415;28;20047;-80
2022/08/09 04:07:03;;;;;;;0.00;0.00;;;13.00;99.90;;;;;;5094402;28;20051;-80
2022/08/09 04:09:29;;;;;;;0.00;0.00;;;13.00;99.90;;;;;;5077591;28;20438;-80
2022/08/09 04:11:54;;;;;;;0.00;0.00;;;13.00;99.90;;;;;;5094303;28;20040;-80
2022/08/09 04:14:21;;;;;;;0.00;0.00;;;13.00;99.90;;;;;;5094613;28;20048;-80
2022/08/09 04:16:47;;;;;;;0.00;0.00;;;13.00;99.90;;;;;;5093579;28;20056;-80
2022/08/09 04:19:12;;;;;;;0.00;0.00;;;12.90;99.90;;;;;;5094499;28;20046;-80
2022/08/09 04:21:39;;;;;;;0.00;0.00;;;13.00;99.90;;;;;;5078185;28;20066;-80
2022/08/09 04:24:05;;;;;;;0.00;0.00;;;12.90;99.90;;;;;;5076733;28;20056;-80
2022/08/09 04:26:31;;;;;;;0.00;0.00;;;12.90;99.90;;;;;;5094451;28;20036;-80
2022/08/09 04:28:57;;;;;;;0.00;0.00;;;12.90;99.90;;;;;;5094199;28;20441;-80
2022/08/09 04:31:22;;;;;;;0.00;0.00;;;12.90;99.90;;;;;;5093602;28;20044;-80
2022/08/09 04:33:48;;;;;;;0.17;0.17;;;12.90;99.90;;;;;;5076946;28;20047;-80
2022/08/09 04:36:14;;;;;;;0.00;0.00;;;12.90;99.90;;;;;;5077530;28;20052;-80
2022/08/09 04:38:39;;;;;;;0.00;0.00;;;12.90;99.90;;;;;;5094234;28;20485;-80
2022/08/09 04:41:05;;;;;;;0.00;0.00;;;12.90;99.90;;;;;;5094185;28;20044;-80
2022/08/09 04:43:31;;;;;;;0.00;0.00;;;13.00;99.90;;;;;;5077150;28;20489;-80
2022/08/09 04:45:56;;;;;;;0.00;0.00;;;13.00;99.90;;;;;;5076951;28;20560;-80
2022/08/09 04:48:22;;;;;;;0.00;0.00;;;13.00;99.90;;;;;;5076905;28;20460;-80
2022/08/09 04:50:48;;;;;;;0.20;0.00;;;13.00;99.90;;;;;;5076111;28;20055;-80
2022/08/09 04:53:13;;;;;;;0.00;0.00;;;13.00;99.90;;;;;;5076337;28;20115;-80
2022/08/09 04:55:40;;;;;;;0.00;0.00;;;13.10;99.90;;;;;;5076740;28;20040;-80
2022/08/09 04:58:06;;;;;;;0.08;0.00;;;13.10;99.90;;;;;;5093721;28;20079;-80
2022/08/09 05:00:33;;;;;;;0.00;0.00;;;13.20;99.90;;;;;;5076536;28;20071;-80
2022/08/09 05:03:01;;;;;;;0.00;0.00;;;13.30;99.90;;;;;;5093510;28;20048;-81
2022/08/09 05:05:27;;;;;;;0.00;0.00;;;13.20;99.90;;;;;;5093857;28;20040;-80
2022/08/09 05:07:53;;;;;;;0.00;0.00;;;13.30;99.90;;;;;;5076909;28;20096;-80
2022/08/09 05:10:19;;;;;;;0.05;0.05;;;13.30;99.90;;;;;;5093580;28;20496;-80
2022/08/09 05:12:44;;;;;;;0.13;0.10;;;13.30;99.90;;;;;;5093673;28;20043;-80
2022/08/09 05:15:10;;;;;;;0.00;0.00;;;13.40;99.90;;;;;;5093450;28;20411;-80
2022/08/09 05:17:35;;;;;;;0.17;0.00;;;13.40;99.90;;;;;;5094297;28;20048;-80
2022/08/09 05:20:01;;;;;;;0.00;0.00;;;13.50;99.90;;;;;;5076390;28;20391;-80
2022/08/09 05:22:27;;;;;;;0.00;0.00;;;13.50;99.90;;;;;;5076579;28;20048;-80
2022/08/09 05:24:53;;;;;;;0.00;0.00;;;13.60;99.90;;;;;;5093214;28;20426;-80
2022/08/09 05:27:18;;;;;;;0.00;0.00;;;13.60;99.90;;;;;;5076190;28;20146;-80
2022/08/09 05:29:44;;;;;;;0.00;0.00;;;13.60;99.90;;;;;;5076215;28;20431;-80
2022/08/09 05:32:10;;;;;;;0.00;0.00;;;13.70;99.90;;;;;;5093147;28;20040;-79
2022/08/09 05:34:35;;;;;;;0.00;0.00;;;13.70;99.90;;;;;;5076626;28;20043;-80
2022/08/09 05:37:04;;;;;;;0.00;0.00;;;13.70;99.90;;;;;;5076790;28;20036;-79
2022/08/09 05:39:29;;;;;;;0.03;0.03;;;13.80;99.90;;;;;;5076660;28;20381;-80
2022/08/09 05:41:55;;;;;;;0.00;0.00;;;13.80;99.90;;;;;;5093450;28;20050;-80
2022/08/09 05:44:21;;;;;;;0.00;0.00;;;13.80;99.90;;;;;;5093119;28;20084;-80
2022/08/09 05:46:46;;;;;;;0.00;0.00;;;13.90;99.90;;;;;;5093141;28;20083;-79
2022/08/09 05:49:12;;;;;;;1.55;0.73;;;14.00;99.90;;;;;;5093007;28;20056;-80
2022/08/09 05:51:38;;;;;;;0.00;0.00;;;14.00;99.90;;;;;;5092750;28;20504;-81
2022/08/09 05:54:04;;;;;;;1.00;0.10;;;14.10;99.90;;;;;;5093107;28;20122;-80
2022/08/09 05:56:29;;;;;;;0.00;0.00;;;14.10;99.90;;;;;;5092586;28;20067;-80
2022/08/09 05:58:58;;;;;;;0.00;0.00;;;14.20;99.90;;;;;;5093131;28;20602;-80
2022/08/09 06:01:25;;;;;;;0.00;0.00;;;14.20;99.90;;;;;;5076192;28;20051;-80
2022/08/09 06:03:51;;;;;;;0.00;0.00;;;14.30;99.90;;;;;;5076588;28;20404;-80
2022/08/09 06:06:17;;;;;;;0.00;0.00;;;14.40;99.90;;;;;;5079509;28;20043;-80
2022/08/09 06:08:42;;;;;;;0.00;0.00;;;14.50;99.90;;;;;;5082127;28;20051;-80
2022/08/09 06:11:08;;;;;;;0.20;0.15;;;14.50;99.90;;;;;;5079839;28;20059;-80
2022/08/09 06:13:34;;;;;;;0.00;0.00;;;14.60;99.90;;;;;;5079381;28;20063;-81
2022/08/09 06:16:01;;;;;;;0.00;0.00;;;14.70;99.90;;;;;;5096713;28;20044;-81
2022/08/09 06:18:27;;;;;;;0.00;0.00;;;14.80;99.90;;;;;;5079983;28;20089;-81
2022/08/09 06:20:53;;;;;;;0.00;0.00;;;14.90;99.90;;;;;;5096611;28;20395;-81
2022/08/09 06:23:19;;;;;;;0.00;0.00;;;15.00;99.90;;;;;;5096474;28;20081;-80
2022/08/09 06:25:45;;;;;;;0.00;0.00;;;15.00;99.90;;;;;;5096467;28;20040;-81
2022/08/09 06:28:10;;;;;;;0.38;0.30;;;15.00;99.90;;;;;;5096218;28;20097;-80
2022/08/09 06:30:36;;;;;;;0.00;0.00;;;15.10;99.90;;;;;;5096148;28;20089;-80
2022/08/09 06:33:02;;;;;;;0.00;0.00;;;15.20;99.90;;;;;;5096412;28;20044;-80
2022/08/09 06:35:28;;;;;;;0.10;0.00;;;15.30;99.90;;;;;;5096361;28;20122;-81
2022/08/09 06:37:54;;;;;;;0.10;0.08;;;15.40;99.90;;;;;;5100174;28;20039;-81
2022/08/09 06:40:19;;;;;;;0.00;0.00;;;15.50;99.90;;;;;;5099559;28;20138;-80
2022/08/09 06:42:45;;;;;;;0.00;0.00;;;15.50;99.90;;;;;;5115941;28;20040;-80
2022/08/09 06:45:11;;;;;;;0.00;0.00;;;15.60;99.90;;;;;;5099401;28;20391;-80
2022/08/09 06:47:37;;;;;;;0.00;0.00;;;15.70;99.90;;;;;;5099553;28;20449;-80
2022/08/09 06:50:04;;;;;;;0.00;0.00;;;15.80;99.90;;;;;;5099452;28;20143;-80
2022/08/09 06:52:30;;;;;;;0.00;0.00;;;15.90;99.90;;;;;;5116073;28;20480;-80
2022/08/09 06:54:55;;;;;;;0.00;0.00;;;16.10;99.90;;;;;;5116214;28;20039;-80
2022/08/09 06:57:21;;;;;;;0.00;0.00;;;16.10;99.90;;;;;;5099055;28;20044;-80
2022/08/09 06:59:47;;;;;;;0.00;0.00;;;16.30;99.90;;;;;;5115968;28;20051;-80
2022/08/09 07:02:12;;;;;;;0.00;0.00;;;16.60;99.90;;;;;;5098763;28;20059;-79
2022/08/09 07:04:38;;;;;;;0.00;0.00;;;17.10;99.90;;;;;;5116198;28;20052;-79
2022/08/09 07:07:04;;;;;;;0.00;0.00;;;17.60;99.90;;;;;;5115973;28;20040;-80
2022/08/09 07:09:29;;;;;;;0.00;0.00;;;18.20;99.90;;;;;;5115611;28;20040;-80
2022/08/09 07:11:55;;;;;;;0.00;0.00;;;18.40;99.90;;;;;;5115806;28;20047;-80
2022/08/09 07:14:21;;;;;;;0.00;0.00;;;18.60;99.90;;;;;;5098754;28;20483;-80
2022/08/09 07:16:46;;;;;;;0.00;0.00;;;18.60;99.90;;;;;;5115053;28;20046;-80
2022/08/09 07:19:13;;;;;;;0.00;0.00;;;18.60;99.90;;;;;;5115476;28;20082;-80
2022/08/09 07:21:39;;;;;;;0.10;0.10;;;18.70;99.90;;;;;;5115295;28;20510;-80
2022/08/09 07:24:06;;;;;;;0.00;0.00;;;18.80;99.90;;;;;;5097885;28;20445;-79
2022/08/09 07:26:33;;;;;;;0.00;0.00;;;19.20;99.90;;;;;;5115176;28;20073;-80
2022/08/09 07:28:59;;;;;;;0.00;0.00;;;19.50;99.90;;;;;;5097994;28;20063;-80
2022/08/09 07:31:24;;;;;;;0.00;0.00;;;19.60;99.90;;;;;;5098452;28;20463;-80
2022/08/09 07:33:50;;;;;;;0.00;0.00;;;19.70;99.90;;;;;;5115208;28;20043;-80
2022/08/09 07:36:16;;;;;;;0.00;0.00;;;19.70;99.90;;;;;;5115522;28;20047;-80
2022/08/09 07:38:41;;;;;;;0.00;0.00;;;19.70;99.90;;;;;;5115161;28;20065;-80
2022/08/09 07:41:07;;;;;;;0.00;0.00;;;19.60;99.90;;;;;;5115855;28;20058;-80
2022/08/09 07:43:33;;;;;;;0.00;0.00;;;19.60;99.90;;;;;;5097998;28;20479;-80
2022/08/09 07:45:59;;;;;;;0.00;0.00;;;19.60;99.90;;;;;;5098083;28;20044;-81
2022/08/09 07:48:25;;;;;;;0.00;0.00;;;19.60;99.90;;;;;;5098551;28;20145;-81
2022/08/09 07:50:51;;;;;;;0.00;0.00;;;19.60;99.90;;;;;;5097566;28;20091;-81
2022/08/09 07:53:19;;;;;;;0.00;0.00;;;19.60;99.90;;;;;;5114956;28;20197;-81
2022/08/09 07:55:45;;;;;;;0.00;0.00;;;19.70;99.90;;;;;;5114711;28;20039;-80
2022/08/09 07:58:10;;;;;;;0.00;0.00;;;19.70;99.90;;;;;;5097988;28;20058;-80
2022/08/09 08:00:36;;;;;;;0.00;0.00;;;19.70;99.90;;;;;;5114540;28;20568;-81
2022/08/09 08:03:02;;;;;;;0.00;0.00;;;19.80;99.90;;;;;;5114572;28;20453;-81
2022/08/09 08:05:28;;;;;;;0.00;0.00;;;19.90;99.90;;;;;;5114874;28;20043;-81
2022/08/09 08:07:54;;;;;;;0.00;0.00;;;20.00;99.90;;;;;;5114425;28;20456;-80
2022/08/09 08:10:20;;;;;;;0.00;0.00;;;20.00;99.90;;;;;;5097401;28;20052;-80
2022/08/09 08:12:46;;;;;;;0.00;0.00;;;20.10;99.90;;;;;;5098200;28;20047;-80
2022/08/09 08:15:15;;;;;;;0.00;0.00;;;20.10;99.90;;;;;;5114405;28;20043;-81
2022/08/09 08:17:41;;;;;;;0.00;0.00;;;20.10;99.90;;;;;;5097232;28;20051;-80
2022/08/09 08:20:08;;;;;;;0.00;0.00;;;20.10;99.90;;;;;;5097437;28;20051;-81
2022/08/09 08:22:34;;;;;;;0.08;0.08;;;20.10;99.90;;;;;;5097030;28;20104;-81
2022/08/09 08:24:59;;;;;;;0.00;0.00;;;20.20;99.90;;;;;;5097107;28;20461;-81
2022/08/09 08:27:25;;;;;;;0.00;0.00;;;20.20;99.90;;;;;;5113605;28;20047;-80
2022/08/09 08:29:52;;;;;;;0.00;0.00;;;20.30;99.90;;;;;;5113484;28;20118;-81
2022/08/09 08:32:19;;;;;;;0.00;0.00;;;20.30;99.90;;;;;;5096010;28;20078;-81
2022/08/09 08:34:45;;;;;;;0.00;0.00;;;20.30;99.90;;;;;;5096138;28;20051;-81
2022/08/09 08:37:11;;;;;;;0.00;0.00;;;20.30;99.90;;;;;;5113589;28;20039;-80
2022/08/09 08:39:37;;;;;;;0.00;0.00;;;20.40;99.90;;;;;;5113388;28;20427;-81
2022/08/09 08:42:03;;;;;;;0.15;0.08;;;20.50;99.90;;;;;;5113775;28;20039;-81
2022/08/09 08:44:33;;;;;;;0.17;0.17;;;20.60;99.90;;;;;;5113813;28;20113;-81
2022/08/09 08:46:59;;;;;;;0.00;0.00;;;20.60;99.90;;;;;;5113926;28;20051;-81
2022/08/09 08:49:27;;;;;;;0.00;0.00;;;20.70;99.90;;;;;;5113320;28;20096;-81
2022/08/09 08:51:53;;;;;;;0.00;0.00;;;20.70;99.90;;;;;;5113453;28;20043;-81
2022/08/09 08:54:19;;;;;;;0.00;0.00;;;20.70;99.90;;;;;;5095864;28;20066;-81
2022/08/09 08:56:45;;;;;;;0.00;0.00;;;20.90;99.90;;;;;;5113397;28;20391;-81
2022/08/09 08:59:13;;;;;;;0.00;0.00;;;20.90;99.90;;;;;;5093685;28;20372;-82
2022/08/09 09:01:44;;;;;;;0.00;0.00;;;21.00;99.90;;;;;;5095941;28;20407;-81
2022/08/09 09:04:11;;;;;;;0.00;0.00;;;21.10;99.90;;;;;;5095953;28;20065;-81
2022/08/09 09:06:40;;;;;;;0.00;0.00;;;21.20;99.90;;;;;;5113463;28;20490;-82
2022/08/09 09:09:07;;;;;;;0.00;0.00;;;21.40;99.90;;;;;;5113585;28;20104;-82
2022/08/09 09:11:34;;;;;;;0.00;0.00;;;21.50;99.90;;;;;;5113677;28;20433;-82
2022/08/09 09:14:06;;;;;;;0.70;0.10;;;21.60;99.90;;;;;;5113313;28;20136;-82
2022/08/09 09:16:33;;;;;;;0.00;0.00;;;21.60;99.90;;;;;;5113660;28;20052;-82
2022/08/09 09:19:04;;;;;;;0.00;0.00;;;21.70;99.90;;;;;;5096457;28;20083;-82
2022/08/09 09:21:30;;;;;;;0.00;0.00;;;21.80;99.90;;;;;;5113521;28;20117;-81
2022/08/09 09:24:03;;;;;;;0.00;0.00;;;21.80;99.90;;;;;;5096570;28;20047;-82
2022/08/09 09:26:29;;;;;;;0.00;0.00;;;21.90;99.90;;;;;;5113339;28;20452;-82
2022/08/09 09:28:54;;;;;;;0.00;0.00;;;22.00;99.90;;;;;;5113088;28;20043;-82
2022/08/09 09:31:22;;;;;;;0.00;0.00;;;22.00;99.90;;;;;;5112915;28;20387;-82
2022/08/09 09:33:48;;;;;;;0.00;0.00;;;22.10;99.90;;;;;;5113123;28;20052;-82
2022/08/09 09:36:14;;;;;;;1.52;0.10;;;22.20;99.90;;;;;;5113597;28;20074;-82
2022/08/09 09:38:41;;;;;;;0.00;0.00;;;22.30;99.90;;;;;;5095864;28;20093;-82
2022/08/09 09:41:07;;;;;;;0.00;0.00;;;22.40;99.90;;;;;;5100013;28;20055;-82
2022/08/09 09:43:33;;;;;;;0.00;0.00;;;22.50;99.90;;;;;;5099970;28;20056;-82
2022/08/09 09:46:02;;;;;;;0.32;0.00;;;22.60;99.90;;;;;;5116239;28;20056;-83
2022/08/09 09:48:29;;;;;;;0.00;0.00;;;22.60;99.90;;;;;;5117103;28;20126;-82
2022/08/09 09:50:55;;;;;;;0.00;0.00;;;22.70;99.90;;;;;;5099864;28;20044;-82
2022/08/09 09:53:23;;;;;;;0.00;0.00;;;22.70;99.90;;;;;;5117387;28;20058;-82
2022/08/09 09:56:00;;;;;;;0.10;0.00;;;22.90;99.90;;;;;;5116830;28;20056;-82
2022/08/09 09:58:59;;;;;;;0.00;0.00;;;23.00;99.90;;;;;;5116542;28;20048;-83
2022/08/09 10:01:25;;;;;;;0.08;0.00;;;23.10;99.90;;;;;;5018461;28;20057;-83
2022/08/09 10:03:52;;;;;;;0.00;0.00;;;23.30;99.90;;;;;;5018455;28;20054;-83
2022/08/09 10:06:18;;;;;;;0.00;0.00;;;23.50;99.90;;;;;;5002160;28;20057;-83
2022/08/09 10:08:46;;;;;;;0.00;0.00;;;23.50;99.90;;;;;;5013951;28;20559;-83
2022/08/09 10:11:19;;;;;;;0.20;0.00;;;23.50;99.90;;;;;;4998594;28;20060;-83
2022/08/09 10:13:46;;;;;;;0.00;0.00;;;23.60;99.90;;;;;;4982551;28;20054;-83
2022/08/09 10:16:12;;;;;;;0.00;0.00;;;23.70;99.90;;;;;;4982742;28;20485;-83
2022/08/09 10:18:37;;;;;;;0.00;0.00;;;23.80;99.90;;;;;;4998843;28;20061;-84
2022/08/09 10:21:09;;;;;;;0.00;0.00;;;23.80;99.90;;;;;;4982316;28;20208;-83
2022/08/09 10:23:36;;;;;;;0.00;0.00;;;23.90;99.90;;;;;;4998738;28;20057;-83
2022/08/09 10:26:02;;;;;;;0.00;0.00;;;23.90;99.90;;;;;;4982694;28;20135;-83
2022/08/09 10:28:30;;;;;;;0.10;0.10;;;23.80;99.10;;;;;;4982425;28;20053;-83
2022/08/09 10:30:56;;;;;;;0.00;0.00;;;23.60;99.50;;;;;;4997867;28;20553;-83
2022/08/09 10:33:23;;;;;;;0.00;0.00;;;23.70;99.80;;;;;;4998736;28;20053;-81
2022/08/09 10:35:49;;;;;;;0.00;0.00;;;23.80;99.40;;;;;;4984781;28;20050;-82
2022/08/09 10:38:17;;;;;;;0.00;0.00;;;24.10;99.80;;;;;;5078667;28;20059;-82
2022/08/09 10:40:43;;;;;;;0.00;0.00;;;24.40;99.60;;;;;;5096085;28;20127;-82
2022/08/09 10:43:10;;;;;;;0.00;0.00;;;24.70;97.40;;;;;;5096060;28;20056;-82
2022/08/09 10:45:37;;;;;;;0.00;0.00;;;24.70;97.30;;;;;;5078718;28;20054;-82
2022/08/09 10:48:30;;;;;;;0.00;0.00;;;24.80;96.40;;;;;;5078570;28;20048;-82
2022/08/09 10:51:08;;;;;;;0.00;0.00;;;24.90;95.80;;;;;;5093731;28;20056;-82
2022/08/09 10:54:01;;;;;;;0.00;0.00;;;25.10;97.30;;;;;;5078635;28;20093;-83
2022/08/09 10:56:35;;;;;;;0.00;0.00;;;25.20;97.20;;;;;;5078728;28;20390;-83
2022/08/09 10:59:20;;;;;;;;;;;25.30;95.80;;;;;;5079009;28;20044;-83
2022/08/09 11:01:50;;;;;;;0.00;0.00;;;25.20;92.80;;;;;;5078018;28;20360;-83
2022/08/09 11:04:21;;;;;;;0.00;0.00;;;25.30;94.80;;;;;;5078759;28;20055;-83
2022/08/09 11:07:10;;;;;;;0.00;0.00;;;25.50;96.60;;;;;;5078417;28;20435;-83
2022/08/09 11:09:42;;;;;;;0.00;0.00;;;25.70;96.10;;;;;;5021484;28;20056;-83
2022/08/09 11:12:23;;;;;;;0.00;0.00;;;25.80;96.30;;;;;;5020633;28;20049;-83
2022/08/09 11:14:56;;;;;;;0.00;0.00;;;25.90;94.10;;;;;;5037701;28;20057;-83
2022/08/09 11:17:21;;;;;;;0.00;0.00;;;26.00;93.10;;;;;;5037288;28;20045;-83
2022/08/09 11:20:07;;;;;;;0.00;0.00;;;26.00;94.30;;;;;;5020467;28;20063;-83
2022/08/09 11:22:45;;;;;;;0.00;0.00;;;26.00;92.20;;;;;;5021001;28;20052;-83
2022/08/09 11:25:15;;;;;;;0.00;0.00;;;26.00;93.30;;;;;;5020563;28;20489;-82
2022/08/09 11:27:48;;;;;;;0.00;0.00;;;26.20;93.80;;;;;;5020558;28;20057;-82
2022/08/09 11:30:20;;;;;;;0.00;0.00;;;26.40;91.20;;;;;;5020891;28;20064;-82
2022/08/09 11:32:49;;;;;;;0.00;0.00;;;26.20;91.40;;;;;;5036559;28;20061;-82
2022/08/09 11:35:26;;;;;;;0.00;0.00;;;26.30;91.00;;;;;;5019975;28;20106;-82
2022/08/09 11:37:55;;;;;;;0.00;0.00;;;26.20;91.00;;;;;;5019990;28;20106;-82
2022/08/09 11:40:30;;;;;;;0.00;0.00;;;26.30;91.00;;;;;;5019976;28;20061;-82
2022/08/09 11:42:58;;;;;;;0.00;0.00;;;26.40;90.70;;;;;;5019788;28;20466;-82
2022/08/09 11:45:29;;;;;;;0.00;0.00;;;26.50;87.20;;;;;;5019903;28;20080;-82
2022/08/09 11:47:59;;;;;;;0.00;0.00;;;26.50;83.20;;;;;;5094427;28;20105;-82
2022/08/09 11:50:25;;;;;;;0.00;0.00;;;26.70;86.90;;;;;;5094123;28;20105;-82
2022/08/09 11:52:57;;;;;;;0.00;0.00;;;26.90;86.90;;;;;;5094138;28;20521;-82
2022/08/09 11:55:32;;;;;;;0.00;0.00;;;26.90;85.80;;;;;;5077625;28;20054;-83
2022/08/09 11:58:14;;;;;;;0.00;0.00;;;27.10;85.30;;;;;;5094920;28;20480;-83
2022/08/09 12:00:54;;;;;;;0.00;0.00;;;27.10;86.80;;;;;;5094149;28;20048;-83
2022/08/09 12:03:22;;;;;;;0.00;0.00;;;27.10;86.20;;;;;;5084785;28;20054;-83
2022/08/09 12:05:50;;;;;;;0.00;0.00;;;27.30;85.90;;;;;;5099417;28;20040;-82
2022/08/09 12:08:17;;;;;;;0.00;0.00;;;27.50;82.00;;;;;;5094384;28;20083;-82
2022/08/09 12:10:53;;;;;;;0.00;0.00;;;27.50;79.40;;;;;;5094067;28;20052;-83
2022/08/09 12:13:41;;;;;;;0.00;0.00;;;27.50;81.20;;;;;;5077006;28;20055;-83
2022/08/09 12:16:13;;;;;;;0.00;0.00;;;27.60;81.60;;;;;;5077255;28;20116;-81
2022/08/09 12:18:41;;;;;;;0.00;0.00;;;27.70;80.80;;;;;;5088202;28;20058;-82
2022/08/09 12:21:08;;;;;;;0.00;0.00;;;27.70;79.30;;;;;;5093332;28;20130;-84
2022/08/09 12:23:44;;;;;;;0.00;0.00;;;27.60;78.10;;;;;;5108091;28;20406;-83
2022/08/09 12:26:10;;;;;;;0.00;0.00;;;27.60;81.90;;;;;;5096814;28;20398;-83
2022/08/09 12:28:38;;;;;;;0.00;0.00;;;27.50;77.30;;;;;;5096065;28;20078;-84
2022/08/09 12:31:23;;;;;;;0.00;0.00;;;27.50;77.10;;;;;;5102261;28;20044;-83
2022/08/09 12:33:49;;;;;;;0.00;0.00;;;27.50;78.50;;;;;;5093385;28;20058;-82
2022/08/09 12:36:16;;;;;;;0.00;0.00;;;27.70;77.00;;;;;;5083544;28;20063;-82
2022/08/09 12:38:42;;;;;;;0.00;0.00;;;27.80;75.50;;;;;;5096807;28;20051;-83
2022/08/09 12:41:07;;;;;;;0.00;0.00;;;27.80;77.10;;;;;;5096360;28;20044;-83
2022/08/09 12:43:34;;;;;;;0.00;0.00;;;27.90;75.10;;;;;;5096314;28;20483;-83
2022/08/09 12:46:00;;;;;;;0.00;0.00;;;28.00;73.10;;;;;;5096683;28;20052;-83
2022/08/09 12:48:28;;;;;;;0.00;0.00;;;27.80;73.30;;;;;;5088170;28;20055;-83
2022/08/09 12:50:54;;;;;;;0.00;0.00;;;28.00;72.40;;;;;;5093306;28;20059;-83
2022/08/09 12:53:23;;;;;;;0.00;0.00;;;28.10;74.70;;;;;;5076663;28;20051;-83